createdAt,value
2018-04-02T00:01:44.477Z,99.90
2018-04-02T00:04:11.943Z,99.90
2018-04-02T00:06:39.426Z,99.90
2018-04-02T00:09:07.656Z,99.90
2018-04-02T00:11:35.140Z,99.90
2018-04-02T00:14:03.363Z,99.90
2018-04-02T00:16:30.881Z,99.90
2018-04-02T00:18:59.137Z,99.90
2018-04-02T00:21:26.614Z,99.90
2018-04-02T00:23:54.863Z,99.90
2018-04-02T00:26:22.344Z,99.90
2018-04-02T00:28:50.616Z,99.90
2018-04-02T00:31:18.863Z,99.90
2018-04-02T00:33:46.349Z,99.90
2018-04-02T00:36:13.808Z,99.90
2018-04-02T00:38:42.066Z,99.90
2018-04-02T00:41:09.552Z,99.90
2018-04-02T00:43:37.812Z,99.90
2018-04-02T00:46:05.275Z,99.90
2018-04-02T00:48:33.519Z,99.90
2018-04-02T00:51:00.991Z,99.90
2018-04-02T00:53:28.484Z,99.90
2018-04-02T00:55:55.960Z,99.90
2018-04-02T00:58:23.429Z,99.90
2018-04-02T01:00:50.908Z,99.90
2018-04-02T01:03:18.391Z,99.90
2018-04-02T01:05:46.617Z,99.90
2018-04-02T01:08:14.107Z,99.80
2018-04-02T01:10:41.590Z,99.90
2018-04-02T01:13:13.330Z,99.90
2018-04-02T01:15:41.596Z,99.90
2018-04-02T01:18:09.072Z,99.90
2018-04-02T01:20:37.324Z,99.90
2018-04-02T01:23:04.806Z,99.90
2018-04-02T01:25:33.032Z,99.90
2018-04-02T01:28:00.520Z,99.90
2018-04-02T01:30:27.985Z,99.90
2018-04-02T01:32:55.462Z,99.90
2018-04-02T01:35:23.721Z,99.90
2018-04-02T01:37:51.989Z,99.90
2018-04-02T01:40:19.465Z,99.90
2018-04-02T01:42:46.948Z,99.90
2018-04-02T01:45:14.438Z,99.90
2018-04-02T01:47:41.905Z,99.90
2018-04-02T01:50:09.381Z,99.90
2018-04-02T01:52:37.633Z,99.90
2018-04-02T01:55:05.098Z,99.90
2018-04-02T01:57:32.584Z,99.90
2018-04-02T02:00:00.845Z,99.90
2018-04-02T02:02:28.321Z,99.90
2018-04-02T02:04:55.864Z,99.90
2018-04-02T02:07:23.276Z,99.90
2018-04-02T02:09:50.752Z,99.90
2018-04-02T02:12:18.224Z,99.90
2018-04-02T02:14:45.704Z,99.90
2018-04-02T02:17:13.947Z,99.90
2018-04-02T02:19:41.408Z,99.90
2018-04-02T02:22:08.878Z,99.90
2018-04-02T02:24:37.118Z,99.90
2018-04-02T02:27:04.597Z,99.90
2018-04-02T02:29:32.056Z,99.90
2018-04-02T02:31:59.576Z,99.90
2018-04-02T02:34:27.069Z,99.90
2018-04-02T02:36:54.554Z,99.90
2018-04-02T02:39:22.789Z,99.90
2018-04-02T02:41:50.288Z,99.90
2018-04-02T02:44:18.536Z,99.90
2018-04-02T02:46:46.018Z,99.90
2018-04-02T02:49:14.245Z,99.90
2018-04-02T02:51:43.251Z,99.90
2018-04-02T02:54:10.756Z,99.90
2018-04-02T02:56:38.236Z,99.90
2018-04-02T02:59:05.713Z,99.90
2018-04-02T03:01:34.710Z,99.90
2018-04-02T03:04:02.195Z,99.90
2018-04-02T03:06:30.441Z,99.90
2018-04-02T03:08:57.936Z,99.90
2018-04-02T03:11:26.196Z,99.90
2018-04-02T03:13:53.667Z,99.90
2018-04-02T03:16:21.928Z,99.90
2018-04-02T03:18:49.416Z,99.90
2018-04-02T03:21:16.897Z,99.90
2018-04-02T03:23:44.620Z,99.90
2018-04-02T03:26:12.857Z,99.90
2018-04-02T03:28:40.333Z,99.90
2018-04-02T03:31:09.215Z,99.90
2018-04-02T03:33:36.677Z,99.90
2018-04-02T03:36:04.172Z,99.90
2018-04-02T03:38:31.641Z,99.90
2018-04-02T03:40:59.116Z,99.90
2018-04-02T03:43:26.596Z,99.90
2018-04-02T03:45:54.083Z,99.90
2018-04-02T03:48:22.310Z,99.90
2018-04-02T03:50:49.806Z,99.90
2018-04-02T03:53:17.294Z,99.90
2018-04-02T03:55:44.763Z,99.90
2018-04-02T03:58:12.226Z,99.90
2018-04-02T04:00:39.715Z,99.90
2018-04-02T04:03:07.199Z,99.90
2018-04-02T04:05:35.446Z,99.90
2018-04-02T04:08:02.905Z,99.90
2018-04-02T04:10:30.409Z,99.90
2018-04-02T04:12:57.865Z,99.90
2018-04-02T04:15:25.329Z,99.90
2018-04-02T04:17:52.822Z,99.90
2018-04-02T04:20:20.319Z,99.90
2018-04-02T04:22:48.559Z,99.90
2018-04-02T04:25:16.032Z,99.90
2018-04-02T04:27:43.531Z,99.90
2018-04-02T04:30:11.010Z,99.90
2018-04-02T04:32:38.492Z,99.90
2018-04-02T04:35:05.982Z,99.90
2018-04-02T04:37:44.459Z,99.90
2018-04-02T04:40:11.977Z,99.90
2018-04-02T04:42:40.199Z,99.90
2018-04-02T04:45:07.666Z,99.90
2018-04-02T04:47:35.135Z,99.90
2018-04-02T04:50:03.355Z,99.90
2018-04-02T04:52:30.845Z,99.90
2018-04-02T04:54:58.437Z,99.90
2018-04-02T04:57:27.669Z,99.90
2018-04-02T04:59:55.229Z,99.90
2018-04-02T05:02:22.961Z,99.90
2018-04-02T05:04:50.551Z,99.90
2018-04-02T05:07:18.128Z,99.90
2018-04-02T05:09:45.915Z,99.90
2018-04-02T05:12:13.508Z,99.90
2018-04-02T05:14:41.177Z,99.90
2018-04-02T05:17:09.856Z,99.90
2018-04-02T05:19:37.507Z,99.90
2018-04-02T05:22:05.917Z,99.90
2018-04-02T05:24:34.506Z,99.90
2018-04-02T05:27:02.085Z,99.90
2018-04-02T05:29:29.635Z,99.90
2018-04-02T05:31:57.253Z,99.90
2018-04-02T05:34:24.813Z,99.90
2018-04-02T05:36:52.423Z,99.90
2018-04-02T05:39:21.482Z,99.90
2018-04-02T05:41:49.848Z,99.90
2018-04-02T05:44:17.545Z,99.90
2018-04-02T05:46:45.084Z,99.90
2018-04-02T05:49:12.792Z,99.90
2018-04-02T05:51:40.695Z,99.90
2018-04-02T05:54:08.981Z,99.90
2018-04-02T05:56:36.663Z,99.90
2018-04-02T05:59:04.838Z,99.90
2018-04-02T06:01:33.584Z,99.90
2018-04-02T06:04:03.995Z,99.90
2018-04-02T06:06:33.052Z,99.90
2018-04-02T06:09:00.654Z,99.90
2018-04-02T06:11:29.696Z,99.90
2018-04-02T06:13:58.509Z,99.90
2018-04-02T06:16:26.088Z,99.90
2018-04-02T06:18:55.218Z,99.90
2018-04-02T06:21:23.555Z,99.90
2018-04-02T06:23:51.126Z,99.90
2018-04-02T06:26:18.724Z,99.90
2018-04-02T06:28:46.548Z,99.90
2018-04-02T06:31:15.472Z,99.90
2018-04-02T06:33:43.046Z,99.90
2018-04-02T06:36:10.599Z,99.90
2018-04-02T06:38:38.314Z,99.90
2018-04-02T06:41:06.638Z,99.90
2018-04-02T06:43:34.245Z,99.90
2018-04-02T06:46:01.758Z,99.90
2018-04-02T06:48:29.390Z,99.90
2018-04-02T06:50:57.688Z,99.90
2018-04-02T06:53:25.179Z,99.90
2018-04-02T06:55:52.704Z,99.90
2018-04-02T06:58:20.177Z,99.90
2018-04-02T07:00:47.632Z,99.90
2018-04-02T07:03:15.108Z,99.90
2018-04-02T07:05:42.597Z,99.90
2018-04-02T07:08:10.828Z,99.90
2018-04-02T07:10:38.308Z,99.90
2018-04-02T07:13:05.797Z,99.90
2018-04-02T07:15:34.068Z,99.90
2018-04-02T07:18:02.313Z,99.90
2018-04-02T07:20:29.813Z,99.90
2018-04-02T07:22:57.274Z,99.50
2018-04-02T07:25:24.732Z,99.60
2018-04-02T07:27:52.228Z,99.50
2018-04-02T07:30:20.013Z,99.30
2018-04-02T07:32:47.488Z,99.30
2018-04-02T07:35:14.980Z,98.80
2018-04-02T07:37:42.439Z,99.40
2018-04-02T07:40:09.925Z,98.50
2018-04-02T07:42:37.392Z,98.30
2018-04-02T07:45:04.860Z,97.50
2018-04-02T07:47:32.328Z,97.20
2018-04-02T07:50:00.556Z,97.00
2018-04-02T07:52:28.013Z,97.00
2018-04-02T07:54:55.498Z,96.80
2018-04-02T07:57:22.954Z,96.50
2018-04-02T07:59:50.444Z,95.80
2018-04-02T08:02:18.772Z,95.60
2018-04-02T08:04:46.224Z,95.70
2018-04-02T08:07:13.697Z,95.30
2018-04-02T08:09:41.185Z,94.70
2018-04-02T08:12:08.805Z,94.80
2018-04-02T08:14:36.248Z,94.00
2018-04-02T08:17:03.724Z,94.10
2018-04-02T08:19:31.227Z,93.90
2018-04-02T08:21:59.496Z,92.60
2018-04-02T08:24:27.784Z,92.60
2018-04-02T08:26:55.280Z,92.60
2018-04-02T08:29:23.528Z,93.30
2018-04-02T08:31:50.993Z,93.30
2018-04-02T08:34:18.484Z,93.30
2018-04-02T08:36:45.976Z,93.20
2018-04-02T08:39:14.268Z,93.60
2018-04-02T08:41:41.730Z,94.00
2018-04-02T08:44:09.229Z,93.60
2018-04-02T08:46:36.702Z,93.00
2018-04-02T08:49:04.215Z,93.10
2018-04-02T08:51:31.916Z,93.00
2018-04-02T08:53:59.417Z,92.70
2018-04-02T08:56:26.924Z,92.00
2018-04-02T08:58:54.435Z,92.70
2018-04-02T09:01:21.903Z,92.60
2018-04-02T09:03:49.423Z,92.50
2018-04-02T09:06:16.963Z,91.50
2018-04-02T09:08:44.441Z,90.50
2018-04-02T09:11:11.980Z,89.70
2018-04-02T09:13:39.497Z,83.80
2018-04-02T09:16:06.984Z,84.20
2018-04-02T09:18:34.440Z,83.40
2018-04-02T09:21:01.937Z,82.40
2018-04-02T09:23:30.254Z,80.80
2018-04-02T09:25:57.716Z,80.80
2018-04-02T09:28:25.569Z,76.30
2018-04-02T09:30:53.053Z,74.40
2018-04-02T09:33:20.545Z,69.80
2018-04-02T09:35:48.805Z,64.80
2018-04-02T09:38:16.259Z,64.80
2018-04-02T09:40:43.750Z,62.60
2018-04-02T09:43:11.962Z,59.50
2018-04-02T09:45:39.452Z,59.60
2018-04-02T09:48:06.930Z,60.50
2018-04-02T09:50:35.144Z,60.50
2018-04-02T09:53:02.665Z,60.30
2018-04-02T09:55:30.908Z,60.30
2018-04-02T09:57:58.408Z,60.10
2018-04-02T10:00:31.461Z,58.50
2018-04-02T10:02:58.943Z,59.10
2018-04-02T10:05:27.192Z,56.00
2018-04-02T10:07:54.668Z,56.00
2018-04-02T10:10:27.155Z,61.00
2018-04-02T10:12:54.578Z,60.90
2018-04-02T10:15:22.041Z,60.10
2018-04-02T10:17:49.516Z,62.60
2018-04-02T10:20:18.364Z,63.70
2018-04-02T10:22:45.848Z,63.70
2018-04-02T10:25:13.337Z,65.10
2018-04-02T10:27:40.802Z,67.90
2018-04-02T10:30:08.280Z,68.60
2018-04-02T10:32:35.736Z,69.10
2018-04-02T10:35:03.208Z,67.60
2018-04-02T10:37:30.682Z,66.70
2018-04-02T10:39:58.148Z,68.10
2018-04-02T10:42:26.493Z,67.50
2018-04-02T10:44:54.641Z,66.50
2018-04-02T10:47:22.109Z,66.40
2018-04-02T10:49:49.567Z,66.20
2018-04-02T10:52:17.056Z,68.90
2018-04-02T10:54:44.522Z,69.40
2018-04-02T10:57:12.022Z,70.10
2018-04-02T10:59:39.635Z,72.30
2018-04-02T11:02:07.112Z,69.80
2018-04-02T11:04:35.332Z,71.20
2018-04-02T11:07:03.557Z,71.60
2018-04-02T11:09:31.043Z,72.20
2018-04-02T11:11:58.517Z,72.50
2018-04-02T11:14:26.037Z,72.00
2018-04-02T11:16:54.259Z,73.20
2018-04-02T11:19:21.746Z,73.10
2018-04-02T11:21:49.253Z,73.40
2018-04-02T11:24:16.756Z,72.30
2018-04-02T11:26:44.241Z,73.60
2018-04-02T11:29:12.497Z,72.50
2018-04-02T11:31:39.974Z,72.30
2018-04-02T11:34:08.197Z,71.60
2018-04-02T11:36:36.229Z,71.60
2018-04-02T11:39:03.700Z,70.80
2018-04-02T11:41:31.200Z,70.70
2018-04-02T11:43:58.686Z,71.00
2018-04-02T11:46:26.921Z,69.80
2018-04-02T11:48:54.385Z,69.80
2018-04-02T11:51:21.853Z,69.40
2018-04-02T11:53:49.356Z,70.60
2018-04-02T11:56:16.869Z,67.30
2018-04-02T11:58:44.330Z,66.50
2018-04-02T12:01:12.665Z,67.20
2018-04-02T12:03:40.129Z,66.10
2018-04-02T12:06:07.620Z,64.70
2018-04-02T12:08:35.124Z,65.20
2018-04-02T12:11:02.581Z,63.60
2018-04-02T12:13:30.087Z,62.90
2018-04-02T12:15:57.673Z,62.00
2018-04-02T12:18:25.991Z,60.10
2018-04-02T12:20:54.416Z,60.10
2018-04-02T12:23:21.840Z,59.40
2018-04-02T12:25:49.352Z,59.50
2018-04-02T12:28:16.821Z,60.70
2018-04-02T12:30:44.297Z,60.20
2018-04-02T12:33:11.812Z,58.90
2018-04-02T12:35:39.500Z,59.80
2018-04-02T12:38:07.132Z,57.50
2018-04-02T12:40:34.716Z,57.50
2018-04-02T12:43:02.203Z,56.10
2018-04-02T12:45:29.695Z,55.50
2018-04-02T12:47:58.041Z,52.80
2018-04-02T12:50:25.554Z,52.80
2018-04-02T12:53:00.417Z,53.60
2018-04-02T12:55:27.907Z,53.50
2018-04-02T12:57:55.372Z,55.80
2018-04-02T13:00:22.860Z,56.20
2018-04-02T13:02:51.102Z,56.30
2018-04-02T13:05:18.595Z,56.20
2018-04-02T13:07:46.098Z,55.00
2018-04-02T13:10:14.356Z,55.70
2018-04-02T13:12:41.824Z,55.80
2018-04-02T13:15:09.302Z,56.40
2018-04-02T13:17:44.444Z,55.40
2018-04-02T13:20:12.012Z,55.40
2018-04-02T13:22:40.346Z,55.50
2018-04-02T13:25:07.838Z,55.20
2018-04-02T13:27:35.313Z,54.80
2018-04-02T13:30:03.619Z,55.00
2018-04-02T13:32:31.126Z,54.90
2018-04-02T13:35:00.059Z,56.00
2018-04-02T13:37:27.514Z,55.50
2018-04-02T13:39:55.080Z,57.30
2018-04-02T13:42:22.540Z,58.40
2018-04-02T13:44:50.056Z,57.70
2018-04-02T13:47:18.353Z,57.50
2018-04-02T13:49:46.574Z,56.90
2018-04-02T13:52:14.080Z,56.90
2018-04-02T13:54:42.320Z,57.30
2018-04-02T13:57:09.781Z,57.30
2018-04-02T13:59:37.241Z,58.00
2018-04-02T14:02:04.736Z,58.20
2018-04-02T14:04:32.963Z,60.00
2018-04-02T14:07:00.436Z,59.60
2018-04-02T14:09:27.932Z,60.50
2018-04-02T14:11:55.469Z,61.20
2018-04-02T14:14:23.684Z,60.00
2018-04-02T14:16:51.173Z,60.00
2018-04-02T14:19:18.626Z,61.00
2018-04-02T14:21:46.108Z,62.10
2018-04-02T14:24:14.380Z,63.40
2018-04-02T14:26:41.828Z,63.10
2018-04-02T14:29:09.351Z,63.70
2018-04-02T14:31:37.179Z,63.60
2018-04-02T14:34:05.493Z,62.60
2018-04-02T14:36:33.224Z,63.60
2018-04-02T14:39:03.105Z,63.70
2018-04-02T14:41:37.334Z,63.80
2018-04-02T14:44:05.315Z,64.30
2018-04-02T14:46:32.911Z,65.60
2018-04-02T14:49:00.442Z,66.20
2018-04-02T14:51:28.158Z,66.70
2018-04-02T14:53:55.988Z,68.30
2018-04-02T14:56:23.685Z,68.10
2018-04-02T14:58:51.215Z,67.10
2018-04-02T15:01:22.742Z,66.50
2018-04-02T15:03:50.815Z,66.40
2018-04-02T15:06:18.419Z,66.50
2018-04-02T15:08:52.660Z,65.50
2018-04-02T15:11:20.337Z,65.60
2018-04-02T15:13:47.915Z,65.10
2018-04-02T15:16:15.468Z,65.20
2018-04-02T15:18:43.070Z,65.60
2018-04-02T15:21:10.584Z,65.80
2018-04-02T15:23:39.707Z,66.60
2018-04-02T15:26:07.195Z,66.60
2018-04-02T15:28:34.676Z,66.40
2018-04-02T15:31:02.896Z,68.20
2018-04-02T15:33:31.224Z,68.10
2018-04-02T15:35:59.497Z,67.80
2018-04-02T15:38:28.015Z,67.60
2018-04-02T15:40:55.584Z,67.60
2018-04-02T15:43:23.063Z,67.30
2018-04-02T15:45:50.549Z,67.20
2018-04-02T15:48:18.013Z,66.50
2018-04-02T15:50:46.235Z,65.90
2018-04-02T15:53:13.709Z,65.80
2018-04-02T15:55:41.156Z,64.40
2018-04-02T15:58:08.642Z,63.30
2018-04-02T16:00:36.123Z,62.70
2018-04-02T16:03:04.343Z,63.00
2018-04-02T16:05:31.863Z,62.80
2018-04-02T16:08:00.111Z,60.40
2018-04-02T16:10:27.609Z,60.40
2018-04-02T16:12:55.094Z,59.30
2018-04-02T16:15:22.579Z,59.70
2018-04-02T16:17:50.052Z,59.70
2018-04-02T16:20:18.299Z,59.30
2018-04-02T16:22:45.783Z,58.60
2018-04-02T16:25:14.044Z,59.60
2018-04-02T16:27:41.501Z,59.50
2018-04-02T16:30:08.980Z,59.50
2018-04-02T16:32:37.235Z,60.00
2018-04-02T16:35:04.690Z,60.00
2018-04-02T16:37:32.180Z,60.50
2018-04-02T16:40:00.418Z,60.60
2018-04-02T16:42:36.127Z,60.50
2018-04-02T16:45:04.363Z,62.20
2018-04-02T16:47:32.624Z,63.00
2018-04-02T16:50:00.112Z,62.10
2018-04-02T16:52:28.992Z,61.70
2018-04-02T16:54:56.758Z,62.50
2018-04-02T16:57:25.985Z,63.40
2018-04-02T16:59:53.616Z,63.30
2018-04-02T17:02:21.541Z,63.90
2018-04-02T17:04:49.451Z,64.50
2018-04-02T17:07:16.903Z,64.50
2018-04-02T17:09:45.135Z,64.80
2018-04-02T17:12:12.644Z,64.60
2018-04-02T17:14:40.901Z,64.70
2018-04-02T17:17:19.738Z,64.70
2018-04-02T17:19:47.315Z,64.60
2018-04-02T17:22:14.797Z,65.70
2018-04-02T17:24:42.337Z,66.70
2018-04-02T17:30:13.666Z,69.20
2018-04-02T17:32:41.170Z,69.20
2018-04-02T17:35:16.253Z,70.30
2018-04-02T17:37:43.781Z,70.80
2018-04-02T17:40:11.257Z,71.10
2018-04-02T17:42:38.745Z,71.00
2018-04-02T17:45:07.007Z,70.70
2018-04-02T17:47:41.010Z,70.60
2018-04-02T17:50:08.474Z,72.30
2018-04-02T17:52:35.955Z,71.00
2018-04-02T17:55:03.514Z,71.90
2018-04-02T17:57:30.953Z,73.40
2018-04-02T17:59:58.458Z,73.40
2018-04-02T18:02:25.916Z,73.70
2018-04-02T18:04:53.385Z,74.10
2018-04-02T18:07:20.870Z,74.00
2018-04-02T18:09:48.335Z,73.20
2018-04-02T18:12:15.793Z,73.30
2018-04-02T18:14:44.047Z,72.90
2018-04-02T18:17:11.526Z,72.80
2018-04-02T18:19:39.040Z,73.10
2018-04-02T18:22:09.505Z,73.00
2018-04-02T18:24:36.998Z,72.80
2018-04-02T18:27:04.480Z,72.00
2018-04-02T18:29:31.961Z,72.30
2018-04-02T18:31:59.460Z,71.30
2018-04-02T18:34:26.927Z,71.50
2018-04-02T18:37:00.583Z,70.30
2018-04-02T18:39:28.057Z,71.60
2018-04-02T18:41:56.313Z,72.80
2018-04-02T18:44:23.778Z,72.70
2018-04-02T18:46:51.257Z,73.50
2018-04-02T18:49:19.479Z,78.00
2018-04-02T18:51:51.558Z,78.00
2018-04-02T18:54:19.033Z,78.40
2018-04-02T18:56:46.525Z,78.60
2018-04-02T18:59:13.994Z,78.40
2018-04-02T19:01:41.830Z,79.00
2018-04-02T19:04:10.195Z,81.30
2018-04-02T19:06:37.827Z,81.20
2018-04-02T19:09:06.151Z,82.10
2018-04-02T19:11:33.592Z,83.00
2018-04-02T19:14:01.840Z,83.30
2018-04-02T19:16:29.349Z,83.30
2018-04-02T19:18:57.633Z,84.30
2018-04-02T19:21:25.095Z,84.10
2018-04-02T19:23:52.563Z,83.10
2018-04-02T19:26:20.053Z,84.00
2018-04-02T19:28:47.541Z,83.80
2018-04-02T19:31:16.488Z,83.20
2018-04-02T19:33:47.513Z,83.20
2018-04-02T19:36:14.979Z,83.00
2018-04-02T19:38:42.488Z,83.70
2018-04-02T19:41:10.755Z,84.40
2018-04-02T19:43:39.024Z,86.60
2018-04-02T19:46:06.574Z,86.40
2018-04-02T19:48:34.073Z,86.00
2018-04-02T19:51:01.542Z,87.80
2018-04-02T19:53:29.040Z,88.40
2018-04-02T19:55:56.557Z,89.00
2018-04-02T19:58:24.061Z,88.90
2018-04-02T20:00:51.534Z,89.20
2018-04-02T20:03:19.820Z,90.00
2018-04-02T20:05:48.066Z,90.10
2018-04-02T20:08:15.561Z,90.10
2018-04-02T20:10:43.839Z,90.50
2018-04-02T20:13:12.135Z,90.20
2018-04-02T20:15:39.554Z,90.10
2018-04-02T20:18:07.781Z,90.40
2018-04-02T20:20:35.273Z,90.30
2018-04-02T20:23:02.935Z,90.40
2018-04-02T20:25:30.483Z,90.80
2018-04-02T20:27:58.108Z,90.90
2018-04-02T20:30:25.670Z,90.70
2018-04-02T20:32:53.244Z,90.00
2018-04-02T20:35:20.832Z,90.70
2018-04-02T20:37:48.587Z,90.80
2018-04-02T20:40:16.433Z,90.40
2018-04-02T20:42:43.893Z,90.80
2018-04-02T20:45:11.435Z,90.60
2018-04-02T20:47:38.877Z,90.60
2018-04-02T20:50:06.355Z,90.40
2018-04-02T20:52:33.809Z,90.10
2018-04-02T20:55:01.277Z,89.80
2018-04-02T20:57:28.822Z,90.30
2018-04-02T20:59:56.297Z,89.20
2018-04-02T21:02:23.769Z,89.80
2018-04-02T21:04:51.220Z,88.50
2018-04-02T21:07:18.696Z,89.00
2018-04-02T21:09:46.203Z,88.40
2018-04-02T21:12:13.645Z,88.60
2018-04-02T21:14:41.150Z,88.80
2018-04-02T21:17:08.617Z,89.80
2018-04-02T21:19:36.076Z,89.70
2018-04-02T21:22:03.575Z,89.70
2018-04-02T21:24:31.083Z,90.20
2018-04-02T21:26:58.567Z,89.70
2018-04-02T21:29:26.816Z,89.60
2018-04-02T21:31:54.288Z,89.60
2018-04-02T21:34:21.748Z,89.70
2018-04-02T21:36:49.994Z,89.70
2018-04-02T21:39:17.513Z,89.60
2018-04-02T21:41:45.028Z,89.40
2018-04-02T21:44:12.530Z,88.40
2018-04-02T21:46:40.000Z,86.70
2018-04-02T21:49:07.477Z,88.30
2018-04-02T21:51:35.726Z,89.40
2018-04-02T21:54:03.193Z,89.00
2018-04-02T21:56:30.693Z,88.50
2018-04-02T21:58:58.161Z,88.70
2018-04-02T22:01:26.581Z,88.60
2018-04-02T22:03:54.079Z,88.60
2018-04-02T22:06:33.522Z,90.00
2018-04-02T22:09:01.284Z,89.90
2018-04-02T22:11:28.861Z,88.80
2018-04-02T22:13:57.375Z,89.40
2018-04-02T22:16:24.881Z,89.30
2018-04-02T22:18:52.361Z,89.80
2018-04-02T22:21:20.630Z,87.20
2018-04-02T22:23:48.886Z,87.50
2018-04-02T22:26:16.391Z,87.50
2018-04-02T22:28:43.883Z,88.40
2018-04-02T22:31:11.393Z,86.70
2018-04-02T22:33:39.636Z,85.80
2018-04-02T22:36:07.153Z,85.80
2018-04-02T22:38:34.636Z,85.60
2018-04-02T22:41:02.140Z,85.00
2018-04-02T22:43:30.658Z,85.40
2018-04-02T22:45:58.173Z,85.40
2018-04-02T22:48:26.469Z,85.40
2018-04-02T22:50:53.982Z,85.30
2018-04-02T22:53:21.470Z,86.70
2018-04-02T22:55:49.718Z,87.00
2018-04-02T22:58:17.236Z,87.00
2018-04-02T23:00:44.751Z,86.90
2018-04-02T23:03:12.989Z,85.50
2018-04-02T23:05:40.510Z,85.40
2018-04-02T23:08:08.052Z,84.50
2018-04-02T23:10:36.313Z,85.50
2018-04-02T23:13:04.566Z,85.80
2018-04-02T23:15:32.046Z,85.70
2018-04-02T23:18:00.341Z,84.20
2018-04-02T23:20:27.875Z,84.20
2018-04-02T23:22:55.321Z,84.20
2018-04-02T23:25:22.840Z,84.40
2018-04-02T23:27:50.346Z,84.10
2018-04-02T23:30:18.601Z,84.70
2018-04-02T23:32:46.093Z,83.50
2018-04-02T23:35:14.366Z,83.60
2018-04-02T23:37:42.634Z,82.60
2018-04-02T23:40:10.163Z,82.60
2018-04-02T23:42:37.672Z,82.30
2018-04-02T23:45:05.182Z,81.70
2018-04-02T23:47:32.702Z,82.10
2018-04-02T23:50:00.200Z,82.30
2018-04-02T23:52:27.689Z,82.30
2018-04-02T23:54:55.934Z,85.20
2018-04-02T23:57:23.424Z,85.10
2018-04-02T23:59:51.670Z,86.00
